sensor_id;sensor_type;location;lat;lon;timestamp;pressure;altitude;pressure_sealevel;temperature;humidity
42621;BME280;28252;53.336;-6.298;2024-01-15T00:02:23;101028.09;;;18.71;81.90
42621;BME280;28252;53.336;-6.298;2024-01-15T00:02:56;101024.41;;;18.72;81.78
42621;BME280;28252;53.336;-6.298;2024-01-15T00:03:33;101027.94;;;18.72;81.97
42621;BME280;28252;53.336;-6.298;2024-01-15T00:04:04;101027.94;;;18.72;80.52
42621;BME280;28252;53.336;-6.298;2024-01-15T00:04:38;101025.09;;;18.74;80.58
42621;BME280;28252;53.336;-6.298;2024-01-15T00:05:11;101020.53;;;18.74;79.70
42621;BME280;28252;53.336;-6.298;2024-01-15T00:05:42;101024.94;;;18.75;80.40
42621;BME280;28252;53.336;-6.298;2024-01-15T00:06:13;101019.69;;;18.74;82.61
42621;BME280;28252;53.336;-6.298;2024-01-15T00:06:52;101024.94;;;18.75;80.31
42621;BME280;28252;53.336;-6.298;2024-01-15T00:07:28;101024.94;;;18.75;81.16
42621;BME280;28252;53.336;-6.298;2024-01-15T00:08:00;101016.00;;;18.75;81.29
42621;BME280;28252;53.336;-6.298;2024-01-15T00:08:31;101020.53;;;18.74;81.00
42621;BME280;28252;53.336;-6.298;2024-01-15T00:09:05;101017.00;;;18.74;79.68
42621;BME280;28252;53.336;-6.298;2024-01-15T00:09:39;101010.59;;;18.75;80.13
42621;BME280;28252;53.336;-6.298;2024-01-15T00:10:18;101021.41;;;18.75;79.94
42621;BME280;28252;53.336;-6.298;2024-01-15T00:10:53;101023.06;;;18.76;81.06
42621;BME280;28252;53.336;-6.298;2024-01-15T00:11:24;101022.25;;;18.75;80.35
42621;BME280;28252;53.336;-6.298;2024-01-15T00:11:59;101018.56;;;18.76;81.32
42621;BME280;28252;53.336;-6.298;2024-01-15T00:12:37;101022.25;;;18.75;80.59
42621;BME280;28252;53.336;-6.298;2024-01-15T00:13:12;101014.16;;;18.75;81.60
42621;BME280;28252;53.336;-6.298;2024-01-15T00:13:48;101018.56;;;18.76;82.39
42621;BME280;28252;53.336;-6.298;2024-01-15T00:14:22;101009.44;;;18.77;80.77
42621;BME280;28252;53.336;-6.298;2024-01-15T00:14:56;101010.47;;;18.76;81.19
42621;BME280;28252;53.336;-6.298;2024-01-15T00:15:29;101015.66;;;18.78;80.51
42621;BME280;28252;53.336;-6.298;2024-01-15T00:16:00;101014.69;;;18.79;79.95
42621;BME280;28252;53.336;-6.298;2024-01-15T00:16:39;101019.94;;;18.80;79.28
42621;BME280;28252;53.336;-6.298;2024-01-15T00:17:13;101017.22;;;18.80;79.67
42621;BME280;28252;53.336;-6.298;2024-01-15T00:17:46;101011.00;;;18.80;80.37
42621;BME280;28252;53.336;-6.298;2024-01-15T00:18:17;101010.84;;;18.81;81.25
42621;BME280;28252;53.336;-6.298;2024-01-15T00:18:53;101017.22;;;18.80;81.18
42621;BME280;28252;53.336;-6.298;2024-01-15T00:19:29;101018.94;;;18.81;79.97
42621;BME280;28252;53.336;-6.298;2024-01-15T00:20:08;101005.44;;;18.81;79.82
42621;BME280;28252;53.336;-6.298;2024-01-15T00:20:43;101017.06;;;18.82;80.18
42621;BME280;28252;53.336;-6.298;2024-01-15T00:21:17;101017.94;;;18.82;80.60
42621;BME280;28252;53.336;-6.298;2024-01-15T00:21:48;101011.56;;;18.83;80.93
42621;BME280;28252;53.336;-6.298;2024-01-15T00:22:25;101015.09;;;18.84;79.75
42621;BME280;28252;53.336;-6.298;2024-01-15T00:22:58;101008.88;;;18.83;80.75
42621;BME280;28252;53.336;-6.298;2024-01-15T00:23:31;101007.00;;;18.84;81.36
42621;BME280;28252;53.336;-6.298;2024-01-15T00:24:05;101009.56;;;18.85;82.29
42621;BME280;28252;53.336;-6.298;2024-01-15T00:25:38;101006.84;;;18.85;80.48
42621;BME280;28252;53.336;-6.298;2024-01-15T00:26:09;101002.28;;;18.86;81.15
42621;BME280;28252;53.336;-6.298;2024-01-15T00:26:43;101001.47;;;18.85;80.03
42621;BME280;28252;53.336;-6.298;2024-01-15T00:27:16;101004.84;;;18.88;79.84
42621;BME280;28252;53.336;-6.298;2024-01-15T00:27:49;101004.84;;;18.88;80.83
42621;BME280;28252;53.336;-6.298;2024-01-15T00:28:23;100997.78;;;18.87;79.95
42621;BME280;28252;53.336;-6.298;2024-01-15T00:28:56;101000.28;;;18.88;79.12
42621;BME280;28252;53.336;-6.298;2024-01-15T00:29:30;101008.56;;;18.87;79.81
42621;BME280;28252;53.336;-6.298;2024-01-15T00:30:18;101000.47;;;18.87;80.02
42621;BME280;28252;53.336;-6.298;2024-01-15T00:30:51;101001.16;;;18.89;79.76
42621;BME280;28252;53.336;-6.298;2024-01-15T00:31:28;100997.44;;;18.90;80.26
42621;BME280;28252;53.336;-6.298;2024-01-15T00:32:07;100997.44;;;18.90;79.02
42621;BME280;28252;53.336;-6.298;2024-01-15T00:32:38;101004.53;;;18.91;79.86
42621;BME280;28252;53.336;-6.298;2024-01-15T00:33:09;101001.84;;;18.91;80.96
42621;BME280;28252;53.336;-6.298;2024-01-15T00:33:43;101002.69;;;18.91;79.68
42621;BME280;28252;53.336;-6.298;2024-01-15T00:34:21;101000.84;;;18.92;79.71
42621;BME280;28252;53.336;-6.298;2024-01-15T00:34:59;101002.53;;;18.93;80.70
42621;BME280;28252;53.336;-6.298;2024-01-15T00:35:34;101005.22;;;18.93;80.67
42621;BME280;28252;53.336;-6.298;2024-01-15T00:36:05;101005.22;;;18.93;80.62
42621;BME280;28252;53.336;-6.298;2024-01-15T00:36:39;100999.69;;;18.94;80.45
42621;BME280;28252;53.336;-6.298;2024-01-15T00:37:11;101000.53;;;18.95;80.50
42621;BME280;28252;53.336;-6.298;2024-01-15T00:37:44;101005.06;;;18.94;80.47
42621;BME280;28252;53.336;-6.298;2024-01-15T00:38:18;101008.63;;;18.95;80.91
42621;BME280;28252;53.336;-6.298;2024-01-15T00:38:49;101008.63;;;18.95;81.10
42621;BME280;28252;53.336;-6.298;2024-01-15T00:39:22;101007.63;;;18.96;80.08
42621;BME280;28252;53.336;-6.298;2024-01-15T00:40:01;101005.06;;;18.94;79.97
42621;BME280;28252;53.336;-6.298;2024-01-15T00:40:35;101004.09;;;18.95;80.71
42621;BME280;28252;53.336;-6.298;2024-01-15T00:41:08;101004.94;;;18.96;80.05
42621;BME280;28252;53.336;-6.298;2024-01-15T00:41:42;101004.94;;;18.96;80.53
42621;BME280;28252;53.336;-6.298;2024-01-15T00:42:13;101008.31;;;18.98;80.96
42621;BME280;28252;53.336;-6.298;2024-01-15T00:42:44;101003.94;;;18.97;81.00
42621;BME280;28252;53.336;-6.298;2024-01-15T00:43:58;101001.94;;;18.99;79.91
42621;BME280;28252;53.336;-6.298;2024-01-15T00:44:34;101002.91;;;18.98;80.05
42621;BME280;28252;53.336;-6.298;2024-01-15T00:45:08;100996.53;;;18.99;80.71
42621;BME280;28252;53.336;-6.298;2024-01-15T00:45:46;101000.22;;;18.98;79.82
42621;BME280;28252;53.336;-6.298;2024-01-15T00:46:18;100997.53;;;18.98;80.13
42621;BME280;28252;53.336;-6.298;2024-01-15T00:46:51;101003.94;;;18.97;80.47
42621;BME280;28252;53.336;-6.298;2024-01-15T00:47:22;100996.81;;;18.96;80.88
42621;BME280;28252;53.336;-6.298;2024-01-15T00:47:58;101003.94;;;18.97;81.06
42621;BME280;28252;53.336;-6.298;2024-01-15T00:48:34;100992.13;;;18.98;80.31
42621;BME280;28252;53.336;-6.298;2024-01-15T00:49:11;100996.53;;;18.99;79.87
42621;BME280;28252;53.336;-6.298;2024-01-15T00:49:53;100992.28;;;18.96;82.33
42621;BME280;28252;53.336;-6.298;2024-01-15T00:50:26;100994.13;;;18.96;80.16
42621;BME280;28252;53.336;-6.298;2024-01-15T00:51:02;100996.81;;;18.96;81.09
42621;BME280;28252;53.336;-6.298;2024-01-15T00:51:36;100989.41;;;18.98;80.13
42621;BME280;28252;53.336;-6.298;2024-01-15T00:52:07;100990.44;;;18.97;81.03
42621;BME280;28252;53.336;-6.298;2024-01-15T00:52:38;100992.28;;;18.96;81.78
42621;BME280;28252;53.336;-6.298;2024-01-15T00:53:09;100996.00;;;18.95;81.04
42621;BME280;28252;53.336;-6.298;2024-01-15T00:53:40;100996.81;;;18.96;80.71
42621;BME280;28252;53.336;-6.298;2024-01-15T00:54:14;100992.28;;;18.96;79.30
42621;BME280;28252;53.336;-6.298;2024-01-15T00:54:45;100993.13;;;18.97;81.80
42621;BME280;28252;53.336;-6.298;2024-01-15T00:55:17;100991.44;;;18.96;79.43
42621;BME280;28252;53.336;-6.298;2024-01-15T00:55:48;100990.59;;;18.95;80.45
42621;BME280;28252;53.336;-6.298;2024-01-15T00:56:19;100988.88;;;18.94;80.88
42621;BME280;28252;53.336;-6.298;2024-01-15T00:56:51;100996.16;;;18.94;80.23
42621;BME280;28252;53.336;-6.298;2024-01-15T00:57:26;100992.41;;;18.95;80.04
42621;BME280;28252;53.336;-6.298;2024-01-15T00:58:02;100995.13;;;18.95;80.69
42621;BME280;28252;53.336;-6.298;2024-01-15T00:58:35;100996.16;;;18.94;80.93
42621;BME280;28252;53.336;-6.298;2024-01-15T00:59:08;100995.47;;;18.92;80.65
42621;BME280;28252;53.336;-6.298;2024-01-15T00:59:41;100992.56;;;18.93;80.64
42621;BME280;28252;53.336;-6.298;2024-01-15T01:00:12;100991.72;;;18.93;81.25
42621;BME280;28252;53.336;-6.298;2024-01-15T01:00:46;100997.97;;;18.93;81.19
42621;BME280;28252;53.336;-6.298;2024-01-15T01:01:19;100992.75;;;18.92;80.39
42621;BME280;28252;53.336;-6.298;2024-01-15T01:01:54;100993.59;;;18.92;80.12
42621;BME280;28252;53.336;-6.298;2024-01-15T01:02:27;100990.06;;;18.92;81.02
42621;BME280;28252;53.336;-6.298;2024-01-15T01:03:07;100989.19;;;18.91;79.68
42621;BME280;28252;53.336;-6.298;2024-01-15T01:03:45;100990.06;;;18.92;80.08
42621;BME280;28252;53.336;-6.298;2024-01-15T01:04:21;100990.06;;;18.92;81.09
42621;BME280;28252;53.336;-6.298;2024-01-15T01:04:54;100988.34;;;18.91;79.87
42621;BME280;28252;53.336;-6.298;2024-01-15T01:05:27;100980.25;;;18.91;80.14
42621;BME280;28252;53.336;-6.298;2024-01-15T01:06:01;100992.75;;;18.92;80.03
42621;BME280;28252;53.336;-6.298;2024-01-15T01:06:37;100987.50;;;18.90;80.56
42621;BME280;28252;53.336;-6.298;2024-01-15T01:07:13;100984.97;;;18.89;80.95
42621;BME280;28252;53.336;-6.298;2024-01-15T01:07:47;100989.50;;;18.88;80.00
42621;BME280;28252;53.336;-6.298;2024-01-15T01:08:20;100984.97;;;18.89;80.34
42621;BME280;28252;53.336;-6.298;2024-01-15T01:08:52;100979.56;;;18.89;80.50
42621;BME280;28252;53.336;-6.298;2024-01-15T01:09:28;100977.84;;;18.88;80.93
42621;BME280;28252;53.336;-6.298;2024-01-15T01:10:09;100977.03;;;18.87;80.10
42621;BME280;28252;53.336;-6.298;2024-01-15T01:10:42;100975.16;;;18.88;80.21
42621;BME280;28252;53.336;-6.298;2024-01-15T01:11:16;100977.84;;;18.88;80.60
42621;BME280;28252;53.336;-6.298;2024-01-15T01:11:49;100979.88;;;18.85;80.41
42621;BME280;28252;53.336;-6.298;2024-01-15T01:12:25;100977.16;;;18.85;80.81
42621;BME280;28252;53.336;-6.298;2024-01-15T01:13:03;100976.19;;;18.87;80.94
42621;BME280;28252;53.336;-6.298;2024-01-15T01:13:38;100973.47;;;18.87;80.44
42621;BME280;28252;53.336;-6.298;2024-01-15T01:14:10;100979.88;;;18.85;80.83
42621;BME280;28252;53.336;-6.298;2024-01-15T01:14:43;100974.47;;;18.85;81.11
42621;BME280;28252;53.336;-6.298;2024-01-15T01:15:17;100979.03;;;18.85;81.02
42621;BME280;28252;53.336;-6.298;2024-01-15T01:15:50;100966.38;;;18.85;80.23
42621;BME280;28252;53.336;-6.298;2024-01-15T01:16:26;100970.06;;;18.84;81.34
42621;BME280;28252;53.336;-6.298;2024-01-15T01:17:03;100972.75;;;18.84;79.98
42621;BME280;28252;53.336;-6.298;2024-01-15T01:17:37;100973.63;;;18.85;80.46
42621;BME280;28252;53.336;-6.298;2024-01-15T01:18:10;100972.06;;;18.82;80.38
42621;BME280;28252;53.336;-6.298;2024-01-15T01:19:41;100963.97;;;18.82;79.63
42621;BME280;28252;53.336;-6.298;2024-01-15T01:20:15;100971.19;;;18.82;79.85
42621;BME280;28252;53.336;-6.298;2024-01-15T01:20:49;100977.59;;;18.81;79.55
42621;BME280;28252;53.336;-6.298;2024-01-15T01:21:27;100965.97;;;18.80;79.90
42621;BME280;28252;53.336;-6.298;2024-01-15T01:22:01;100970.53;;;18.80;81.30
42621;BME280;28252;53.336;-6.298;2024-01-15T01:22:34;100970.53;;;18.80;80.34
42621;BME280;28252;53.336;-6.298;2024-01-15T01:23:08;100961.56;;;18.79;79.50
42621;BME280;28252;53.336;-6.298;2024-01-15T01:23:41;100972.34;;;18.79;79.67
42621;BME280;28252;53.336;-6.298;2024-01-15T01:24:15;100975.03;;;18.79;80.15
42621;BME280;28252;53.336;-6.298;2024-01-15T01:24:51;100972.34;;;18.79;80.37
42621;BME280;28252;53.336;-6.298;2024-01-15T01:25:25;100964.25;;;18.79;79.71
42621;BME280;28252;53.336;-6.298;2024-01-15T01:25:58;100974.19;;;18.79;80.26
42621;BME280;28252;53.336;-6.298;2024-01-15T01:26:30;100972.50;;;18.78;81.59
42621;BME280;28252;53.336;-6.298;2024-01-15T01:27:03;100970.66;;;18.78;81.09
42621;BME280;28252;53.336;-6.298;2024-01-15T01:27:39;100965.28;;;18.78;80.29
42621;BME280;28252;53.336;-6.298;2024-01-15T01:28:10;100966.25;;;18.77;80.44
42621;BME280;28252;53.336;-6.298;2024-01-15T01:28:48;100967.97;;;18.78;80.92
42621;BME280;28252;53.336;-6.298;2024-01-15T01:29:19;100969.97;;;18.76;80.81
42621;BME280;28252;53.336;-6.298;2024-01-15T01:29:53;100968.28;;;18.75;81.90
42621;BME280;28252;53.336;-6.298;2024-01-15T01:30:29;100962.03;;;18.75;81.21
42621;BME280;28252;53.336;-6.298;2024-01-15T01:31:07;100966.56;;;18.74;80.52
42621;BME280;28252;53.336;-6.298;2024-01-15T01:31:44;100967.44;;;18.75;81.31
42621;BME280;28252;53.336;-6.298;2024-01-15T01:32:20;100964.88;;;18.73;80.85
42621;BME280;28252;53.336;-6.298;2024-01-15T01:32:53;100968.41;;;18.74;80.55
42621;BME280;28252;53.336;-6.298;2024-01-15T01:33:28;100969.41;;;18.73;80.40
42621;BME280;28252;53.336;-6.298;2024-01-15T01:34:02;100963.19;;;18.72;80.85
42621;BME280;28252;53.336;-6.298;2024-01-15T01:34:39;100969.59;;;18.71;80.40
42621;BME280;28252;53.336;-6.298;2024-01-15T01:35:14;100966.91;;;18.71;81.49
42621;BME280;28252;53.336;-6.298;2024-01-15T01:35:47;100965.19;;;18.70;80.55
42621;BME280;28252;53.336;-6.298;2024-01-15T01:36:18;100959.78;;;18.70;80.91
42621;BME280;28252;53.336;-6.298;2024-01-15T01:36:52;100961.81;;;18.68;80.73
42621;BME280;28252;53.336;-6.298;2024-01-15T01:37:28;100965.19;;;18.70;81.09
42621;BME280;28252;53.336;-6.298;2024-01-15T01:37:59;100961.09;;;18.66;81.77
42621;BME280;28252;53.336;-6.298;2024-01-15T01:38:32;100961.94;;;18.66;81.71
42621;BME280;28252;53.336;-6.298;2024-01-15T01:39:06;100960.94;;;18.67;81.60
42621;BME280;28252;53.336;-6.298;2024-01-15T01:39:38;100957.53;;;18.65;80.97
42621;BME280;28252;53.336;-6.298;2024-01-15T01:40:13;100961.94;;;18.66;81.67
42621;BME280;28252;53.336;-6.298;2024-01-15T01:40:44;100959.25;;;18.66;80.52
42621;BME280;28252;53.336;-6.298;2024-01-15T01:41:23;100959.41;;;18.65;82.00
42621;BME280;28252;53.336;-6.298;2024-01-15T01:41:57;100959.56;;;18.63;81.43
42621;BME280;28252;53.336;-6.298;2024-01-15T01:42:32;100955.88;;;18.64;81.84
42621;BME280;28252;53.336;-6.298;2024-01-15T01:43:06;100956.84;;;18.63;81.72
42621;BME280;28252;53.336;-6.298;2024-01-15T01:43:37;100948.75;;;18.63;81.30
42621;BME280;28252;53.336;-6.298;2024-01-15T01:44:08;100957.69;;;18.64;81.63
42621;BME280;28252;53.336;-6.298;2024-01-15T01:44:42;100953.31;;;18.63;82.31
42621;BME280;28252;53.336;-6.298;2024-01-15T01:45:13;100960.41;;;18.64;81.73
42621;BME280;28252;53.336;-6.298;2024-01-15T01:45:47;100958.00;;;18.61;81.80
42621;BME280;28252;53.336;-6.298;2024-01-15T01:46:22;100957.00;;;18.62;81.20
42621;BME280;28252;53.336;-6.298;2024-01-15T01:46:54;100961.56;;;18.61;81.65
42621;BME280;28252;53.336;-6.298;2024-01-15T01:47:27;100966.09;;;18.61;81.11
42621;BME280;28252;53.336;-6.298;2024-01-15T01:48:04;100962.72;;;18.59;81.82
42621;BME280;28252;53.336;-6.298;2024-01-15T01:48:38;100959.03;;;18.60;81.35
42621;BME280;28252;53.336;-6.298;2024-01-15T01:49:12;100964.56;;;18.58;81.83
42621;BME280;28252;53.336;-6.298;2024-01-15T01:49:46;100961.88;;;18.58;81.27
42621;BME280;28252;53.336;-6.298;2024-01-15T01:50:19;100967.25;;;18.58;81.07
42621;BME280;28252;53.336;-6.298;2024-01-15T01:50:58;100965.56;;;18.57;81.50
42621;BME280;28252;53.336;-6.298;2024-01-15T01:51:33;100966.41;;;18.58;80.98
42621;BME280;28252;53.336;-6.298;2024-01-15T01:52:05;100961.88;;;18.58;81.54
42621;BME280;28252;53.336;-6.298;2024-01-15T01:52:36;100962.00;;;18.57;80.92
42621;BME280;28252;53.336;-6.298;2024-01-15T01:53:10;100960.31;;;18.56;81.95
42621;BME280;28252;53.336;-6.298;2024-01-15T01:53:41;100964.03;;;18.55;81.96
42621;BME280;28252;53.336;-6.298;2024-01-15T01:54:16;100957.59;;;18.56;81.73
42621;BME280;28252;53.336;-6.298;2024-01-15T01:54:53;100961.31;;;18.55;80.97
42621;BME280;28252;53.336;-6.298;2024-01-15T01:55:27;100961.31;;;18.55;81.69
42621;BME280;28252;53.336;-6.298;2024-01-15T01:56:03;100972.13;;;18.55;81.28
42621;BME280;28252;53.336;-6.298;2024-01-15T01:56:34;100966.03;;;18.53;81.97
42621;BME280;28252;53.336;-6.298;2024-01-15T01:57:08;100960.63;;;18.53;80.78
42621;BME280;28252;53.336;-6.298;2024-01-15T01:57:43;100954.22;;;18.54;81.82
42621;BME280;28252;53.336;-6.298;2024-01-15T01:58:16;100959.63;;;18.54;81.44
42621;BME280;28252;53.336;-6.298;2024-01-15T01:58:53;100966.88;;;18.53;81.41
42621;BME280;28252;53.336;-6.298;2024-01-15T01:59:27;100953.53;;;18.52;81.11
42621;BME280;28252;53.336;-6.298;2024-01-15T02:00:01;100958.78;;;18.53;81.21
42621;BME280;28252;53.336;-6.298;2024-01-15T02:00:42;100952.53;;;18.53;81.07
42621;BME280;28252;53.336;-6.298;2024-01-15T02:01:16;100961.47;;;18.53;80.81
42621;BME280;28252;53.336;-6.298;2024-01-15T02:01:50;100954.22;;;18.54;81.27
42621;BME280;28252;53.336;-6.298;2024-01-15T02:02:24;100959.63;;;18.54;80.74
42621;BME280;28252;53.336;-6.298;2024-01-15T02:03:05;100953.38;;;18.53;81.38
42621;BME280;28252;53.336;-6.298;2024-01-15T02:03:39;100958.94;;;18.52;80.97
42621;BME280;28252;53.336;-6.298;2024-01-15T02:04:13;100953.69;;;18.50;80.73
42621;BME280;28252;53.336;-6.298;2024-01-15T02:04:49;100956.22;;;18.52;80.81
42621;BME280;28252;53.336;-6.298;2024-01-15T02:05:22;100956.22;;;18.52;81.47
42621;BME280;28252;53.336;-6.298;2024-01-15T02:05:56;100958.94;;;18.52;80.80
42621;BME280;28252;53.336;-6.298;2024-01-15T02:06:27;100955.41;;;18.51;80.64
42621;BME280;28252;53.336;-6.298;2024-01-15T02:07:05;100957.22;;;18.51;80.42
42621;BME280;28252;53.336;-6.298;2024-01-15T02:07:40;100954.53;;;18.51;81.17
42621;BME280;28252;53.336;-6.298;2024-01-15T02:08:14;100950.16;;;18.50;80.74
42621;BME280;28252;53.336;-6.298;2024-01-15T02:08:45;100951.81;;;18.51;80.28
42621;BME280;28252;53.336;-6.298;2024-01-15T02:09:19;100947.44;;;18.50;80.62
42621;BME280;28252;53.336;-6.298;2024-01-15T02:09:50;100951.81;;;18.51;79.93
42621;BME280;28252;53.336;-6.298;2024-01-15T02:10:23;100948.28;;;18.50;79.84
42621;BME280;28252;53.336;-6.298;2024-01-15T02:10:55;100945.59;;;18.50;79.24
42621;BME280;28252;53.336;-6.298;2024-01-15T02:11:26;100942.06;;;18.50;79.65
42621;BME280;28252;53.336;-6.298;2024-01-15T02:12:03;100938.53;;;18.49;80.19
42621;BME280;28252;53.336;-6.298;2024-01-15T02:12:36;100951.81;;;18.51;79.50
42621;BME280;28252;53.336;-6.298;2024-01-15T02:13:12;100942.06;;;18.50;80.19
42621;BME280;28252;53.336;-6.298;2024-01-15T02:13:48;100947.44;;;18.50;79.95
42621;BME280;28252;53.336;-6.298;2024-01-15T02:14:21;100947.44;;;18.50;78.57
42621;BME280;28252;53.336;-6.298;2024-01-15T02:14:53;100940.19;;;18.50;79.56
42621;BME280;28252;53.336;-6.298;2024-01-15T02:15:29;100950.16;;;18.50;80.09
42621;BME280;28252;53.336;-6.298;2024-01-15T02:16:05;100947.31;;;18.51;80.29
42621;BME280;28252;53.336;-6.298;2024-01-15T02:16:36;100942.91;;;18.50;79.38
42621;BME280;28252;53.336;-6.298;2024-01-15T02:17:12;100937.50;;;18.50;78.75
42621;BME280;28252;53.336;-6.298;2024-01-15T02:19:06;100944.75;;;18.50;79.40
42621;BME280;28252;53.336;-6.298;2024-01-15T02:19:32;100947.44;;;18.50;79.24
42621;BME280;28252;53.336;-6.298;2024-01-15T02:20:06;100949.13;;;18.51;79.12
42621;BME280;28252;53.336;-6.298;2024-01-15T02:20:42;100946.44;;;18.51;78.33
42621;BME280;28252;53.336;-6.298;2024-01-15T02:21:19;100954.53;;;18.51;78.89
42621;BME280;28252;53.336;-6.298;2024-01-15T02:21:57;100948.28;;;18.50;78.68
42621;BME280;28252;53.336;-6.298;2024-01-15T02:22:33;100955.41;;;18.51;78.92
42621;BME280;28252;53.336;-6.298;2024-01-15T02:23:08;100946.28;;;18.52;78.48
42621;BME280;28252;53.336;-6.298;2024-01-15T02:23:41;100952.53;;;18.53;78.36
42621;BME280;28252;53.336;-6.298;2024-01-15T02:24:15;100944.59;;;18.51;78.61
42621;BME280;28252;53.336;-6.298;2024-01-15T02:24:49;100945.44;;;18.52;78.39
42621;BME280;28252;53.336;-6.298;2024-01-15T02:25:20;100956.22;;;18.52;79.84
42621;BME280;28252;53.336;-6.298;2024-01-15T02:25:54;100950.84;;;18.52;78.09
42621;BME280;28252;53.336;-6.298;2024-01-15T02:26:26;100950.69;;;18.53;77.92
42621;BME280;28252;53.336;-6.298;2024-01-15T02:26:57;100949.84;;;18.53;77.95
42621;BME280;28252;53.336;-6.298;2024-01-15T02:27:33;100946.13;;;18.54;78.79
42621;BME280;28252;53.336;-6.298;2024-01-15T02:28:11;100942.59;;;18.53;78.49
42621;BME280;28252;53.336;-6.298;2024-01-15T02:28:42;100940.75;;;18.54;78.19
42621;BME280;28252;53.336;-6.298;2024-01-15T02:29:15;100943.44;;;18.54;77.96
42621;BME280;28252;53.336;-6.298;2024-01-15T02:29:46;100944.31;;;18.54;78.54
42621;BME280;28252;53.336;-6.298;2024-01-15T02:30:20;100939.75;;;18.55;78.38
42621;BME280;28252;53.336;-6.298;2024-01-15T02:30:57;100952.41;;;18.54;77.91
42621;BME280;28252;53.336;-6.298;2024-01-15T02:31:33;100942.44;;;18.55;78.10
42621;BME280;28252;53.336;-6.298;2024-01-15T02:32:09;100944.31;;;18.54;78.06
42621;BME280;28252;53.336;-6.298;2024-01-15T02:32:47;100949.53;;;18.56;78.23
42621;BME280;28252;53.336;-6.298;2024-01-15T02:33:23;100953.09;;;18.56;79.14
42621;BME280;28252;53.336;-6.298;2024-01-15T02:33:54;100947.69;;;18.56;78.34
42621;BME280;28252;53.336;-6.298;2024-01-15T02:34:30;100944.13;;;18.56;79.53
42621;BME280;28252;53.336;-6.298;2024-01-15T02:35:04;100943.28;;;18.55;78.95
42621;BME280;28252;53.336;-6.298;2024-01-15T02:35:38;100945.84;;;18.57;78.75
42621;BME280;28252;53.336;-6.298;2024-01-15T02:36:14;100937.75;;;18.57;79.11
42621;BME280;28252;53.336;-6.298;2024-01-15T02:36:47;100942.16;;;18.58;78.24
42621;BME280;28252;53.336;-6.298;2024-01-15T02:37:20;100946.66;;;18.57;78.56
42621;BME280;28252;53.336;-6.298;2024-01-15T02:37:58;100947.53;;;18.58;78.41
42621;BME280;28252;53.336;-6.298;2024-01-15T02:38:30;100945.84;;;18.57;80.45
42621;BME280;28252;53.336;-6.298;2024-01-15T02:39:04;100944.84;;;18.58;77.95
42621;BME280;28252;53.336;-6.298;2024-01-15T02:39:37;100943.81;;;18.59;77.72
42621;BME280;28252;53.336;-6.298;2024-01-15T02:40:11;100945.69;;;18.58;77.75
42621;BME280;28252;53.336;-6.298;2024-01-15T02:40:45;100945.69;;;18.58;78.02
42621;BME280;28252;53.336;-6.298;2024-01-15T02:41:16;100940.97;;;18.60;77.89
42621;BME280;28252;53.336;-6.298;2024-01-15T02:41:53;100943.66;;;18.60;78.81
42621;BME280;28252;53.336;-6.298;2024-01-15T02:42:26;100939.13;;;18.61;78.88
42621;BME280;28252;53.336;-6.298;2024-01-15T02:42:57;100940.81;;;18.62;78.77
42621;BME280;28252;53.336;-6.298;2024-01-15T02:43:29;100940.81;;;18.62;79.17
42621;BME280;28252;53.336;-6.298;2024-01-15T02:44:02;100935.44;;;18.62;77.97
42621;BME280;28252;53.336;-6.298;2024-01-15T02:44:38;100938.13;;;18.62;78.04
42621;BME280;28252;53.336;-6.298;2024-01-15T02:45:09;100938.13;;;18.62;77.89
42621;BME280;28252;53.336;-6.298;2024-01-15T02:45:45;100933.41;;;18.64;78.06
42621;BME280;28252;53.336;-6.298;2024-01-15T02:46:17;100937.13;;;18.63;78.09
42621;BME280;28252;53.336;-6.298;2024-01-15T02:46:50;100934.28;;;18.64;77.86
42621;BME280;28252;53.336;-6.298;2024-01-15T02:47:21;100939.69;;;18.64;78.23
42621;BME280;28252;53.336;-6.298;2024-01-15T02:47:52;100934.28;;;18.64;78.20
42621;BME280;28252;53.336;-6.298;2024-01-15T02:48:24;100944.22;;;18.64;77.84
42621;BME280;28252;53.336;-6.298;2024-01-15T02:48:55;100937.97;;;18.63;77.79
42621;BME280;28252;53.336;-6.298;2024-01-15T02:49:26;100945.06;;;18.64;78.13
42621;BME280;28252;53.336;-6.298;2024-01-15T02:50:01;100944.91;;;18.66;78.17
42621;BME280;28252;53.336;-6.298;2024-01-15T02:50:38;100944.91;;;18.66;77.48
42621;BME280;28252;53.336;-6.298;2024-01-15T02:51:09;100948.47;;;18.66;77.92
42621;BME280;28252;53.336;-6.298;2024-01-15T02:51:43;100949.31;;;18.67;78.20
42621;BME280;28252;53.336;-6.298;2024-01-15T02:52:14;100943.06;;;18.66;77.97
42621;BME280;28252;53.336;-6.298;2024-01-15T02:52:48;100942.91;;;18.68;77.78
42621;BME280;28252;53.336;-6.298;2024-01-15T02:53:21;100947.28;;;18.69;78.79
42621;BME280;28252;53.336;-6.298;2024-01-15T02:53:56;100943.59;;;18.70;78.15
42621;BME280;28252;53.336;-6.298;2024-01-15T02:54:35;100942.75;;;18.70;77.64
42621;BME280;28252;53.336;-6.298;2024-01-15T02:55:06;100933.81;;;18.69;78.42
42621;BME280;28252;53.336;-6.298;2024-01-15T02:55:44;100938.22;;;18.70;77.78
42621;BME280;28252;53.336;-6.298;2024-01-15T02:56:18;100940.91;;;18.70;77.59
42621;BME280;28252;53.336;-6.298;2024-01-15T02:56:54;100938.22;;;18.70;77.98
42621;BME280;28252;53.336;-6.298;2024-01-15T02:57:30;100939.91;;;18.71;77.81
42621;BME280;28252;53.336;-6.298;2024-01-15T02:58:03;100945.31;;;18.71;78.02
42621;BME280;28252;53.336;-6.298;2024-01-15T02:58:35;100936.34;;;18.71;77.85
42621;BME280;28252;53.336;-6.298;2024-01-15T02:59:09;100938.91;;;18.72;78.30
42621;BME280;28252;53.336;-6.298;2024-01-15T02:59:43;100940.75;;;18.72;78.10
42621;BME280;28252;53.336;-6.298;2024-01-15T03:00:14;100943.59;;;18.70;77.71
42621;BME280;28252;53.336;-6.298;2024-01-15T03:00:47;100942.63;;;18.71;78.45
42621;BME280;28252;53.336;-6.298;2024-01-15T03:01:23;100942.63;;;18.71;78.76
42621;BME280;28252;53.336;-6.298;2024-01-15T03:01:57;100939.91;;;18.71;78.13